Time;durP1;ratioP1;P1;durP2;ratioP2;P2;SDS_P1;SDS_P2;PMS_P1;PMS_P2;Temp;Humidity;BMP_temperature;BMP_pressure;BME280_temperature;BME280_humidity;BME280_pressure;Samples;Min_cycle;Max_cycle;Signal;HPM_P1;HPM_P2
2023/04/20 00:01:09;;;;;;;8.10;3.45;;;;;;;5.32;45.75;102217.44;5055990;28;20021;-79
2023/04/20 00:03:36;;;;;;;8.07;3.33;;;;;;;5.74;45.58;102284.94;5056288;28;20025;-80
2023/04/20 00:06:02;;;;;;;7.13;3.42;;;;;;;5.72;45.43;102290.97;5055839;28;20042;-81
2023/04/20 00:08:28;;;;;;;7.28;3.42;;;;;;;5.68;45.74;102289.31;5055846;28;20036;-80
2023/04/20 00:10:53;;;;;;;7.78;3.20;;;;;;;5.68;45.96;102279.06;5055808;28;20021;-81
2023/04/20 00:13:18;;;;;;;7.53;3.50;;;;;;;5.67;45.70;102277.38;5055732;28;20386;-81
2023/04/20 00:15:44;;;;;;;5.78;3.22;;;;;;;5.43;45.40;102232.59;5055797;28;20033;-80
2023/04/20 00:18:09;;;;;;;5.95;3.22;;;;;;;5.64;45.82;102273.19;5056004;28;20497;-81
2023/04/20 00:20:35;;;;;;;5.65;3.33;;;;;;;5.20;45.52;102189.47;5056022;28;20079;-82
2023/04/20 00:23:01;;;;;;;8.10;3.53;;;;;;;5.24;45.29;102185.16;5055828;28;20032;-81
2023/04/20 00:25:27;;;;;;;8.15;3.65;;;;;;;5.67;45.71;102254.31;5055614;28;20028;-82
2023/04/20 00:27:52;;;;;;;7.95;3.40;;;;;;;5.60;46.17;102248.47;5056136;28;20033;-82
2023/04/20 00:30:17;;;;;;;5.93;2.92;;;;;;;5.54;46.05;102246.03;5056147;28;20165;-79
2023/04/20 00:32:43;;;;;;;5.93;3.00;;;;;;;5.32;46.15;102216.59;5056560;28;20083;-80
2023/04/20 00:35:08;;;;;;;6.22;2.85;;;;;;;5.24;46.02;102208.19;5054749;28;20449;-90
2023/04/20 00:37:34;;;;;;;5.68;2.80;;;;;;;5.46;46.87;102253.03;5056043;28;20055;-81
2023/04/20 00:40:00;;;;;;;6.10;3.13;;;;;;;5.43;46.75;102241.13;5055284;28;20021;-81
2023/04/20 00:42:27;;;;;;;6.60;2.95;;;;;;;5.43;46.73;102235.16;5055408;28;20074;-81
2023/04/20 00:44:53;;;;;;;6.75;3.13;;;;;;;4.28;47.23;102057.22;5055365;28;20035;-82
2023/04/20 00:47:18;;;;;;;7.05;2.70;;;;;;;5.15;47.91;102214.34;5055456;28;20100;-81
2023/04/20 00:49:44;;;;;;;8.40;3.10;;;;;;;5.18;48.32;102233.03;5055357;28;20079;-84
2023/04/20 00:52:09;;;;;;;5.85;3.22;;;;;;;4.69;49.58;102163.94;5055302;28;20108;-81
2023/04/20 00:54:35;;;;;;;5.35;2.83;;;;;;;4.01;49.24;102073.84;5054678;28;20029;-81
2023/04/20 00:57:03;;;;;;;5.50;3.00;;;;;;;4.26;49.57;102116.06;5054043;28;20453;-88
2023/04/20 00:59:28;;;;;;;8.98;3.25;;;;;;;4.62;49.93;102172.59;5055191;28;20025;-81
2023/04/20 01:01:53;;;;;;;6.57;2.88;;;;;;;4.74;50.41;102203.09;5055171;28;20055;-86
2023/04/20 01:04:19;;;;;;;7.10;2.92;;;;;;;4.57;50.20;102180.34;5056366;28;20078;-91
2023/04/20 01:06:45;;;;;;;5.82;2.97;;;;;;;4.59;50.25;102177.75;5055001;28;20076;-84
2023/04/20 01:09:11;;;;;;;5.38;3.08;;;;;;;4.22;50.38;102116.97;5054724;28;20068;-80
2023/04/20 01:11:37;;;;;;;5.50;2.75;;;;;;;4.70;50.08;102196.34;5054812;28;20501;-90
2023/04/20 01:14:02;;;;;;;7.60;3.30;;;;;;;4.52;50.17;102145.47;5054981;28;20025;-81
2023/04/20 01:16:27;;;;;;;7.72;3.13;;;;;;;4.69;50.37;102183.56;5054809;28;20036;-81
2023/04/20 01:18:53;;;;;;;5.78;2.80;;;;;;;3.70;50.71;102019.84;5054649;28;20104;-82
2023/04/20 01:21:25;;;;;;;7.65;3.38;;;;;;;3.93;50.78;102048.44;5054597;28;20112;-81
2023/04/20 01:23:51;;;;;;;6.80;2.92;;;;;;;4.05;50.22;102051.66;5054563;28;20082;-81
2023/04/20 01:26:18;;;;;;;7.63;3.17;;;;;;;4.40;50.85;102115.81;5054485;28;20025;-80
2023/04/20 01:28:47;;;;;;;7.30;3.13;;;;;;;4.66;51.01;102155.50;5054616;28;20063;-81
2023/04/20 01:31:12;;;;;;;6.78;3.40;;;;;;;4.35;50.74;102104.84;5054406;28;20686;-82
2023/04/20 01:33:39;;;;;;;8.55;3.55;;;;;;;4.41;50.53;102098.78;5054439;28;20029;-83
2023/04/20 01:36:06;;;;;;;5.70;3.10;;;;;;;4.67;50.72;102144.38;5054167;28;20489;-79
2023/04/20 01:38:33;;;;;;;5.55;3.15;;;;;;;4.06;51.22;102049.09;5054369;28;20036;-80
2023/04/20 01:40:59;;;;;;;7.18;3.05;;;;;;;4.46;50.90;102109.78;5053996;28;20030;-81
2023/04/20 01:43:25;;;;;;;7.38;2.95;;;;;;;4.55;51.23;102132.66;5054555;28;20029;-81
2023/04/20 01:45:50;;;;;;;6.18;2.92;;;;;;;4.52;51.76;102136.09;5054266;28;20027;-79
2023/04/20 01:48:15;;;;;;;5.97;2.80;;;;;;;4.02;51.42;102047.41;5054300;28;20029;-79
2023/04/20 01:50:41;;;;;;;7.20;3.25;;;;;;;4.49;51.20;102122.50;5053957;28;20119;-80
2023/04/20 01:53:09;;;;;;;5.38;2.97;;;;;;;3.58;51.63;101966.38;5054112;28;20378;-79
2023/04/20 01:55:35;;;;;;;6.07;3.55;;;;;;;4.02;51.95;102049.97;5053676;28;20025;-80
2023/04/20 01:58:06;;;;;;;7.68;3.13;;;;;;;3.68;52.51;101999.44;5053740;28;20029;-80
2023/04/20 02:00:31;;;;;;;6.18;3.08;;;;;;;3.30;52.87;101940.44;5054055;28;20070;-80
2023/04/20 02:02:57;;;;;;;7.75;3.50;;;;;;;3.65;53.07;101999.47;5053874;28;20428;-80
2023/04/20 02:05:22;;;;;;;7.25;3.53;;;;;;;3.34;52.90;101942.94;5053543;28;20069;-80
2023/04/20 02:07:47;;;;;;;10.15;3.67;;;;;;;4.33;53.40;102104.03;5053264;28;20036;-80
2023/04/20 02:10:13;;;;;;;8.13;3.60;;;;;;;4.11;53.67;102077.94;5053539;28;20066;-80
2023/04/20 02:12:38;;;;;;;5.88;3.17;;;;;;;4.26;54.08;102107.56;5053634;28;20025;-80
2023/04/20 02:15:05;;;;;;;6.85;3.45;;;;;;;4.22;54.67;102100.78;5053285;28;20032;-80
2023/04/20 02:17:31;;;;;;;6.65;3.35;;;;;;;3.97;54.75;102059.44;5053456;28;20039;-80
2023/04/20 02:19:57;;;;;;;8.45;3.20;;;;;;;4.21;55.22;102104.22;5053526;28;20021;-80
2023/04/20 02:22:22;;;;;;;7.65;3.60;;;;;;;3.50;55.47;101981.81;5053564;28;20482;-79
2023/04/20 02:24:47;;;;;;;7.55;3.67;;;;;;;4.19;55.13;102088.91;5053431;28;20024;-80
2023/04/20 02:27:13;;;;;;;6.45;3.38;;;;;;;3.97;55.58;102052.63;5053023;28;20478;-81
2023/04/20 02:29:38;;;;;;;8.27;3.50;;;;;;;3.83;55.97;102038.34;5053352;28;20100;-81
2023/04/20 02:32:06;;;;;;;5.63;3.55;;;;;;;4.15;56.40;102087.28;5052921;28;20017;-80
2023/04/20 02:34:33;;;;;;;8.07;3.63;;;;;;;3.97;57.05;102067.13;5052998;28;20474;-81
2023/04/20 02:36:58;;;;;;;6.60;3.55;;;;;;;4.08;57.90;102087.38;5053056;28;20029;-80
2023/04/20 02:39:24;;;;;;;7.07;3.88;;;;;;;4.08;57.58;102087.38;5053131;28;20459;-79
2023/04/20 02:41:49;;;;;;;6.90;3.63;;;;;;;3.93;58.02;102057.78;5052561;28;20037;-80
2023/04/20 02:44:14;;;;;;;7.88;3.97;;;;;;;3.93;58.42;102050.13;5052910;28;20033;-80
2023/04/20 02:46:40;;;;;;;5.60;3.40;;;;;;;3.96;59.02;102055.22;5053315;28;20032;-81
2023/04/20 02:49:06;;;;;;;9.20;4.25;;;;;;;3.76;59.21;102019.75;5053044;28;20021;-81
2023/04/20 02:51:31;;;;;;;7.10;3.83;;;;;;;3.73;59.66;102022.34;5052925;28;20036;-81
2023/04/20 02:53:56;;;;;;;6.53;3.35;;;;;;;3.71;60.47;102021.50;5051087;28;20044;-81
2023/04/20 02:56:25;;;;;;;7.22;3.80;;;;;;;3.76;60.51;102029.13;5052668;28;20112;-80
2023/04/20 02:58:51;;;;;;;8.15;4.20;;;;;;;3.41;60.82;101974.31;5052742;28;20101;-80
2023/04/20 03:01:16;;;;;;;5.90;3.67;;;;;;;3.91;61.37;102056.97;5052782;28;20474;-81
2023/04/20 03:03:41;;;;;;;8.40;3.75;;;;;;;3.91;61.33;102062.09;5052390;28;20052;-80
2023/04/20 03:06:07;;;;;;;7.40;4.28;;;;;;;3.93;61.35;102053.56;5052586;28;20086;-80
2023/04/20 03:08:32;;;;;;;7.43;4.07;;;;;;;3.99;61.82;102053.44;5051607;28;20116;-81
2023/04/20 03:10:57;;;;;;;6.80;4.07;;;;;;;3.45;61.71;101951.28;5052642;28;20385;-79
2023/04/20 03:13:23;;;;;;;7.15;4.05;;;;;;;4.12;61.95;102048.13;5052618;28;20024;-82
2023/04/20 03:15:48;;;;;;;8.50;3.78;;;;;;;4.18;61.86;102042.91;5052796;28;20057;-80
2023/04/20 03:18:13;;;;;;;7.20;3.63;;;;;;;3.71;62.06;101955.94;5051885;28;20084;-80
2023/04/20 03:20:39;;;;;;;5.68;3.58;;;;;;;4.15;62.51;102012.31;5052749;28;20029;-90
2023/04/20 03:23:04;;;;;;;6.68;4.00;;;;;;;3.78;62.62;101936.25;5052803;28;20100;-80
2023/04/20 03:25:30;;;;;;;8.10;3.63;;;;;;;4.19;62.76;102004.53;5052772;28;20029;-81
2023/04/20 03:27:55;;;;;;;7.15;3.80;;;;;;;4.21;63.29;101996.84;5052408;28;20375;-81
2023/04/20 03:30:20;;;;;;;6.50;3.85;;;;;;;4.53;63.33;102038.03;5052465;28;20076;-81
2023/04/20 03:32:46;;;;;;;8.27;4.35;;;;;;;4.54;63.61;102039.72;5051413;28;20091;-81
2023/04/20 03:35:11;;;;;;;6.68;3.65;;;;;;;4.58;63.65;102020.88;5035394;28;20021;-87
2023/04/20 03:37:40;;;;;;;8.65;3.90;;;;;;;4.68;63.72;102025.81;5035448;28;20033;-82
2023/04/20 03:40:07;;;;;;;8.48;4.35;;;;;;;4.06;64.11;101912.78;5052752;28;20021;-92
2023/04/20 03:42:32;;;;;;;7.15;4.30;;;;;;;4.77;64.04;102015.41;5052440;28;20051;-83
2023/04/20 03:44:58;;;;;;;7.85;3.85;;;;;;;4.28;63.75;101924.28;5052632;28;20021;-91
2023/04/20 03:47:24;;;;;;;8.63;4.22;;;;;;;4.43;63.79;101948.72;5052542;28;20439;-81
2023/04/20 03:49:50;;;;;;;7.72;4.32;;;;;;;4.80;64.29;102007.66;5052828;28;20024;-81
2023/04/20 03:52:15;;;;;;;10.70;4.10;;;;;;;4.95;64.65;102019.31;5052906;28;20029;-80
2023/04/20 03:54:40;;;;;;;9.07;3.88;;;;;;;4.54;64.78;101931.44;5053173;28;20024;-81
2023/04/20 03:57:06;;;;;;;7.35;4.07;;;;;;;4.38;64.46;101907.03;5052109;28;20061;-88
2023/04/20 03:59:31;;;;;;;7.78;4.03;;;;;;;4.93;64.69;101986.06;5052141;28;20517;-81
2023/04/20 04:01:57;;;;;;;7.50;4.03;;;;;;;4.97;64.86;101991.94;5052236;28;20060;-81
2023/04/20 04:04:23;;;;;;;8.02;4.75;;;;;;;4.62;65.48;101924.41;5052203;28;20112;-87
2023/04/20 04:06:48;;;;;;;8.27;4.30;;;;;;;5.12;66.03;101997.59;5052661;28;20102;-83
2023/04/20 04:09:13;;;;;;;7.13;4.10;;;;;;;5.04;66.00;101979.00;5053693;28;20044;-87
2023/04/20 04:11:39;;;;;;;7.53;4.40;;;;;;;4.86;66.55;101938.44;5053522;28;20036;-81
2023/04/20 04:14:04;;;;;;;8.88;4.43;;;;;;;5.26;65.98;101999.00;5053377;28;20025;-80
2023/04/20 04:16:30;;;;;;;6.85;4.07;;;;;;;4.94;66.50;101933.16;5052872;28;20378;-80
2023/04/20 04:18:56;;;;;;;8.23;4.00;;;;;;;5.23;66.40;101982.00;5052721;28;20025;-80
2023/04/20 04:21:21;;;;;;;9.55;4.50;;;;;;;5.13;66.97;101960.03;5052850;28;20542;-81
2023/04/20 04:23:47;;;;;;;6.07;4.00;;;;;;;4.91;66.47;101916.13;5053306;28;20180;-80
2023/04/20 04:26:13;;;;;;;8.80;4.60;;;;;;;5.40;66.54;101985.00;5052608;28;20040;-80
2023/04/20 04:28:39;;;;;;;7.20;4.05;;;;;;;5.41;67.11;101979.03;5053228;28;20390;-82
2023/04/20 04:31:04;;;;;;;9.15;4.40;;;;;;;5.41;66.88;101979.03;5054891;28;20035;-80
2023/04/20 04:33:33;;;;;;;6.90;4.30;;;;;;;5.01;67.25;101897.13;5056438;28;20029;-80
2023/04/20 04:35:59;;;;;;;11.25;4.80;;;;;;;5.48;67.60;101966.91;5055126;28;20471;-80
2023/04/20 04:38:25;;;;;;;8.20;4.72;;;;;;;5.47;67.24;101950.69;5056232;28;20025;-80
2023/04/20 04:40:51;;;;;;;7.88;4.28;;;;;;;5.56;67.34;101956.47;5056160;28;20082;-80
2023/04/20 04:43:18;;;;;;;9.00;3.90;;;;;;;5.57;67.99;101948.75;5056360;28;20017;-81
2023/04/20 04:45:44;;;;;;;8.93;4.85;;;;;;;5.56;67.52;101936.81;5057423;28;20029;-81
2023/04/20 04:48:10;;;;;;;7.28;4.15;;;;;;;5.69;67.63;101943.31;5057846;28;20017;-83
2023/04/20 04:50:37;;;;;;;8.70;4.50;;;;;;;5.43;67.42;101887.59;5056973;28;20392;-81
2023/04/20 04:53:02;;;;;;;10.77;5.13;;;;;;;5.70;67.39;101924.53;5055635;28;20478;-81
2023/04/20 04:55:27;;;;;;;9.52;4.70;;;;;;;5.53;67.87;101895.06;5055600;28;20025;-81
2023/04/20 04:57:53;;;;;;;7.78;4.63;;;;;;;5.45;67.52;101861.94;5055605;28;20021;-80
2023/04/20 05:00:18;;;;;;;8.13;4.88;;;;;;;4.63;67.59;101728.31;5055507;28;20021;-81
2023/04/20 05:02:44;;;;;;;9.20;4.60;;;;;;;5.84;67.33;101921.59;5055413;28;20095;-81
2023/04/20 05:05:09;;;;;;;8.95;4.22;;;;;;;5.99;67.33;101946.00;5055081;28;20028;-80
2023/04/20 05:07:35;;;;;;;8.65;4.50;;;;;;;5.60;66.89;101876.91;5054949;28;20052;-81
2023/04/20 05:10:00;;;;;;;6.40;3.92;;;;;;;5.95;66.84;101924.75;5053828;28;20094;-82
2023/04/20 05:12:25;;;;;;;6.75;4.45;;;;;;;5.66;67.04;101865.69;5054813;28;20025;-80
2023/04/20 05:14:51;;;;;;;7.72;4.10;;;;;;;5.99;68.41;101916.09;5054745;28;20029;-80
2023/04/20 05:17:17;;;;;;;7.22;3.83;;;;;;;5.76;67.58;101885.06;5054475;28;20021;-80
2023/04/20 05:19:42;;;;;;;8.02;4.50;;;;;;;6.11;67.77;101930.31;5054694;28;20056;-80
2023/04/20 05:22:13;;;;;;;11.27;4.88;;;;;;;5.91;68.41;101900.09;5054695;28;20032;-80
2023/04/20 05:24:42;;;;;;;7.60;4.35;;;;;;;6.10;68.49;101938.06;5053413;28;20021;-80
2023/04/20 05:27:08;;;;;;;8.23;4.13;;;;;;;6.11;67.80;101925.19;5054342;28;20123;-80
2023/04/20 05:29:42;;;;;;;9.02;4.22;;;;;;;5.74;68.23;101863.78;5054342;28;20060;-81
2023/04/20 05:32:15;;;;;;;9.80;4.15;;;;;;;5.66;68.01;101848.59;5054513;28;20100;-82
2023/04/20 05:34:40;;;;;;;7.00;4.53;;;;;;;6.15;67.85;101934.47;5054541;28;20052;-80
2023/04/20 05:37:14;;;;;;;8.43;4.60;;;;;;;5.97;67.68;101886.25;5054435;28;20060;-81
2023/04/20 05:39:39;;;;;;;8.25;4.80;;;;;;;5.79;67.78;101843.97;5054383;28;20026;-81
2023/04/20 05:42:05;;;;;;;8.40;4.65;;;;;;;5.46;68.08;101790.19;5053489;28;20079;-81
2023/04/20 05:44:30;;;;;;;7.82;4.57;;;;;;;5.86;68.32;101853.19;5054180;28;20025;-81
2023/04/20 05:46:55;;;;;;;10.82;4.95;;;;;;;6.11;67.85;101878.19;5054015;28;20386;-81
2023/04/20 05:49:21;;;;;;;8.45;4.63;;;;;;;6.38;68.34;101910.75;5053941;28;20056;-81
2023/04/20 05:51:49;;;;;;;8.40;4.63;;;;;;;5.88;67.02;101823.22;5054106;28;20025;-82
2023/04/20 05:54:15;;;;;;;10.40;4.78;;;;;;;6.48;67.07;101906.19;5054154;28;20112;-82
2023/04/20 05:56:40;;;;;;;8.52;4.63;;;;;;;6.50;67.15;101913.00;5053958;28;20109;-82
2023/04/20 05:59:06;;;;;;;9.57;5.03;;;;;;;6.00;67.51;101819.53;5053647;28;20025;-81
2023/04/20 06:01:31;;;;;;;7.93;4.55;;;;;;;6.42;67.33;101893.56;5053755;28;20024;-81
2023/04/20 06:03:57;;;;;;;8.07;5.22;;;;;;;6.62;66.80;101916.94;5053585;28;20452;-81
2023/04/20 06:06:22;;;;;;;9.27;5.32;;;;;;;6.35;66.62;101866.41;5054019;28;20049;-84
2023/04/20 06:08:49;;;;;;;9.90;5.25;;;;;;;6.32;66.99;101851.94;5055807;28;20025;-82
2023/04/20 06:11:15;;;;;;;9.55;5.20;;;;;;;6.65;67.28;101880.91;5055167;28;20116;-82
2023/04/20 06:13:49;;;;;;;9.02;5.03;;;;;;;5.86;66.61;101722.44;5055335;28;20053;-84
2023/04/20 06:16:21;;;;;;;10.43;5.18;;;;;;;5.93;65.81;101711.19;5054383;28;20091;-82
2023/04/20 06:18:52;;;;;;;7.88;4.72;;;;;;;6.68;65.45;101815.78;5054439;28;20017;-83
2023/04/20 06:21:33;;;;;;;9.00;5.25;;;;;;;6.39;65.51;101743.13;5041629;28;20021;-83
2023/04/20 06:24:14;;;;;;;7.90;5.57;;;;;;;7.48;65.02;101907.41;5036369;28;20080;-83
2023/04/20 06:26:56;;;;;;;9.45;5.32;;;;;;;6.20;64.92;101691.56;5033833;28;20116;-82
2023/04/20 06:29:27;;;;;;;8.70;4.63;;;;;;;6.43;65.11;101734.44;5033361;28;20463;-82
2023/04/20 06:31:59;;;;;;;;;;;;;;;7.55;64.62;101911.44;5033652;28;20474;-82
2023/04/20 06:34:34;;;;;;;10.52;5.10;;;;;;;6.71;64.44;101777.22;5032769;28;19966;-82
2023/04/20 06:37:00;;;;;;;8.18;5.28;;;;;;;7.07;64.80;101819.66;5033657;28;20025;-85
2023/04/20 06:39:25;;;;;;;8.43;4.65;;;;;;;6.84;64.74;101766.50;5032765;28;20442;-81
2023/04/20 06:42:07;;;;;;;8.65;4.82;;;;;;;6.24;63.71;101649.53;5033247;28;20029;-84
2023/04/20 06:44:32;;;;;;;8.73;4.95;;;;;;;7.64;64.11;101897.44;5032972;28;20403;-76
2023/04/20 06:47:01;;;;;;;8.38;5.13;;;;;;;7.39;64.75;101840.91;5032695;28;20079;-78
2023/04/20 06:49:26;;;;;;;9.10;5.10;;;;;;;7.78;64.49;101889.28;5032819;28;20083;-77
2023/04/20 06:51:54;;;;;;;9.77;5.18;;;;;;;7.49;64.28;101834.56;5032538;28;20029;-82
2023/04/20 06:54:21;;;;;;;11.48;5.32;;;;;;;7.68;63.84;101855.34;5033239;28;20021;-82
2023/04/20 06:56:46;;;;;;;8.60;4.80;;;;;;;6.95;63.74;101730.19;5032791;28;20061;-83
2023/04/20 06:59:17;;;;;;;8.90;5.03;;;;;;;7.99;63.84;101891.09;5033027;28;20052;-80
2023/04/20 07:01:42;;;;;;;8.77;5.20;;;;;;;7.96;62.56;101881.78;5044752;22;20491;-82
2023/04/20 07:04:08;;;;;;;11.30;5.88;;;;;;;7.75;63.79;101849.06;5052695;28;20113;-81
2023/04/20 07:06:40;;;;;;;7.80;4.80;;;;;;;7.91;63.80;101886.22;5052874;28;20033;-81
2023/04/20 07:09:07;;;;;;;9.82;5.43;;;;;;;7.86;63.54;101882.97;5052210;28;20466;-81
2023/04/20 07:11:32;;;;;;;9.35;5.30;;;;;;;7.56;63.43;101846.28;5051335;28;20431;-81
2023/04/20 07:14:00;;;;;;;10.80;5.35;;;;;;;7.17;64.53;101785.06;5052502;28;20044;-81
2023/04/20 07:16:25;;;;;;;10.27;4.65;;;;;;;7.75;64.99;101890.22;5052235;28;20053;-80
2023/04/20 07:18:51;;;;;;;12.82;5.70;;;;;;;7.64;64.38;101882.03;5050998;28;20068;-82
2023/04/20 07:21:26;;;;;;;10.77;5.22;;;;;;;7.58;64.79;101888.22;5052423;28;20013;-82
2023/04/20 07:23:51;;;;;;;8.80;5.22;;;;;;;7.51;65.26;101894.47;5052115;28;20033;-81
2023/04/20 07:26:16;;;;;;;8.40;4.78;;;;;;;6.31;65.36;101704.88;5052757;28;20019;-79
2023/04/20 07:28:52;;;;;;;11.05;6.20;;;;;;;6.34;65.21;101711.63;5052745;28;20032;-81
2023/04/20 07:31:17;;;;;;;9.50;5.43;;;;;;;7.31;66.09;101884.84;5051215;28;20048;-82
2023/04/20 07:33:45;;;;;;;7.90;5.20;;;;;;;6.76;65.89;101798.44;5052215;28;20210;-82
2023/04/20 07:36:11;;;;;;;8.23;5.43;;;;;;;7.37;65.99;101901.75;5052199;28;20029;-82
2023/04/20 07:38:36;;;;;;;8.68;5.18;;;;;;;7.38;65.82;101900.91;5052338;28;20036;-85
2023/04/20 07:41:02;;;;;;;9.23;5.35;;;;;;;7.08;65.74;101839.34;5052167;28;20033;-84
2023/04/20 07:43:28;;;;;;;8.73;5.25;;;;;;;7.59;66.02;101882.19;5051415;28;20478;-82
2023/04/20 07:46:05;;;;;;;10.82;5.15;;;;;;;6.59;65.29;101686.06;5052292;28;20037;-81
2023/04/20 07:48:33;;;;;;;8.75;5.18;;;;;;;8.20;64.34;101881.78;5052199;28;20025;-80
2023/04/20 07:51:08;;;;;;;7.50;4.38;;;;;;;7.31;63.71;101707.53;5052240;28;20071;-83
2023/04/20 07:53:39;;;;;;;8.90;5.53;;;;;;;7.82;62.56;101759.72;5034371;28;20029;-79
2023/04/20 07:56:10;;;;;;;9.07;5.30;;;;;;;8.21;62.44;101811.41;5032165;28;20037;-82
2023/04/20 07:58:54;;;;;;;8.70;5.47;;;;;;;7.87;62.15;101747.53;5032315;28;20498;-83
2023/04/20 08:01:32;;;;;;;10.15;5.45;;;;;;;8.12;62.92;101802.31;5032016;28;20032;-81
2023/04/20 08:03:58;;;;;;;10.15;4.80;;;;;;;8.45;62.80;101840.56;5014216;28;20051;-83
2023/04/20 08:06:52;;;;;;;7.30;4.15;;;;;;;8.07;62.50;101757.06;5035710;28;20112;-85
2023/04/20 08:09:17;;;;;;;9.10;4.63;;;;;;;7.57;61.49;101642.38;5034175;28;20048;-85
2023/04/20 08:11:45;;;;;;;9.48;4.57;;;;;;;7.87;61.11;101708.97;5033963;28;20033;-85
2023/04/20 08:14:11;;;;;;;6.85;3.90;;;;;;;8.06;61.20;101761.34;5016815;28;20033;-82
2023/04/20 08:16:36;;;;;;;6.93;4.15;;;;;;;8.62;61.46;101848.47;5033523;28;20128;-79
2023/04/20 08:19:08;;;;;;;6.97;4.57;;;;;;;8.56;61.53;101849.56;5033761;28;20132;-79
2023/04/20 08:21:37;;;;;;;7.72;4.68;;;;;;;8.73;62.55;101872.06;5033648;28;20029;-78
2023/04/20 08:24:03;;;;;;;7.40;4.63;;;;;;;8.73;62.11;101884.13;5033435;28;20042;-79
2023/04/20 08:26:28;;;;;;;9.50;4.60;;;;;;;8.60;62.05;101874.28;5033522;28;20032;-79
2023/04/20 08:28:54;;;;;;;9.85;4.68;;;;;;;8.09;62.63;101787.00;5033445;28;20038;-80
2023/04/20 08:31:19;;;;;;;9.70;5.18;;;;;;;8.00;63.25;101746.19;5033344;28;20030;-80
2023/04/20 08:33:45;;;;;;;9.38;4.30;;;;;;;8.76;62.92;101806.75;5033491;28;20026;-81
2023/04/20 08:36:15;;;;;;;6.82;4.20;;;;;;;9.42;61.87;101849.53;5033389;28;20034;-79
2023/04/20 08:38:41;;;;;;;6.45;3.83;;;;;;;9.64;61.04;101857.22;5033380;28;20073;-78
2023/04/20 08:41:06;;;;;;;8.05;3.97;;;;;;;9.56;60.00;101840.41;5034966;28;20033;-77
2023/04/20 08:43:32;;;;;;;7.45;4.25;;;;;;;9.40;60.79;101825.56;5035330;28;20075;-78
2023/04/20 08:45:58;;;;;;;6.65;3.35;;;;;;;9.45;60.02;101831.38;5035319;28;20056;-79
2023/04/20 08:48:30;;;;;;;6.88;4.13;;;;;;;9.66;60.35;101855.41;5035127;28;20033;-77
2023/04/20 08:50:56;;;;;;;6.13;4.10;;;;;;;9.85;61.06;101847.72;5034159;28;20030;-77
2023/04/20 08:53:21;;;;;;;8.30;4.50;;;;;;;9.83;59.44;101848.66;5035100;28;20474;-77
2023/04/20 08:55:48;;;;;;;7.15;3.92;;;;;;;9.37;60.31;101786.19;5035051;28;20025;-79
2023/04/20 08:58:14;;;;;;;9.13;4.38;;;;;;;9.90;59.76;101835.44;5035301;28;20497;-77
2023/04/20 09:00:49;;;;;;;6.15;3.60;;;;;;;10.31;59.75;101838.78;5034977;28;20100;-78
2023/04/20 09:03:14;;;;;;;7.32;3.83;;;;;;;9.79;57.75;101744.78;5034955;28;20971;-78
2023/04/20 09:05:40;;;;;;;5.63;3.42;;;;;;;10.15;58.56;101805.97;5034906;28;20026;-77
2023/04/20 09:08:07;;;;;;;8.15;4.07;;;;;;;10.27;58.16;101837.25;5034821;28;20614;-76
2023/04/20 09:10:43;;;;;;;5.25;3.22;;;;;;;10.30;58.90;101829.34;5034949;28;20036;-77
2023/04/20 09:13:21;;;;;;;5.47;3.60;;;;;;;10.07;57.73;101760.69;5034811;28;20051;-77
2023/04/20 09:15:46;;;;;;;5.53;3.47;;;;;;;10.70;57.76;101832.66;5034251;28;20030;-77
2023/04/20 09:18:13;;;;;;;6.45;4.03;;;;;;;10.95;57.29;101834.09;5016371;28;20036;-78
2023/04/20 09:20:39;;;;;;;6.28;3.92;;;;;;;10.69;56.54;101794.00;5034529;28;20029;-78
2023/04/20 09:23:16;;;;;;;10.27;4.13;;;;;;;11.19;56.85;101819.94;5033696;28;20034;-77
2023/04/20 09:25:45;;;;;;;7.80;4.10;;;;;;;11.06;54.93;101804.22;5035019;28;20034;-77
2023/04/20 09:28:12;;;;;;;6.10;3.97;;;;;;;10.82;56.12;101775.25;5034891;28;20421;-79
2023/04/20 09:30:48;;;;;;;7.35;3.50;;;;;;;11.23;56.01;101813.72;5034609;28;20112;-79
2023/04/20 09:33:13;;;;;;;7.72;4.60;;;;;;;11.18;56.89;101826.03;5034468;28;20040;-80
2023/04/20 09:35:42;;;;;;;8.30;4.35;;;;;;;10.59;57.04;101784.09;5033014;28;20026;-80
2023/04/20 09:38:09;;;;;;;7.57;4.03;;;;;;;10.48;57.79;101801.84;5034381;28;20029;-81
2023/04/20 09:40:35;;;;;;;5.20;3.65;;;;;;;10.46;57.59;101828.66;5034382;28;20116;-83
2023/04/20 09:43:18;;;;;;;7.85;4.22;;;;;;;10.28;58.51;101817.44;5033384;28;20032;-83
2023/04/20 09:45:47;;;;;;;6.97;3.65;;;;;;;10.16;60.11;101834.28;5034446;28;20107;-82
2023/04/20 09:48:17;;;;;;;7.60;3.97;;;;;;;9.73;59.21;101812.13;5033731;28;20025;-81
2023/04/20 09:50:45;;;;;;;6.93;4.07;;;;;;;9.54;61.26;101816.41;5034054;28;20052;-81
2023/04/20 09:53:14;;;;;;;7.07;4.35;;;;;;;9.47;62.38;101816.69;5043264;28;20101;-80
2023/04/20 09:55:48;;;;;;;7.15;4.03;;;;;;;9.43;62.17;101820.28;5053876;28;20060;-82
2023/04/20 09:58:15;;;;;;;6.68;4.40;;;;;;;9.28;62.63;101804.63;5052606;28;20112;-83
2023/04/20 10:00:41;;;;;;;7.55;4.20;;;;;;;9.06;62.91;101804.69;5053591;28;20025;-83
2023/04/20 10:03:09;;;;;;;7.80;4.35;;;;;;;8.83;63.68;101772.94;5053300;28;20041;-85
2023/04/20 10:05:35;;;;;;;8.25;4.75;;;;;;;8.87;63.92;101799.44;5053814;28;20029;-86
2023/04/20 10:08:02;;;;;;;8.40;4.18;;;;;;;8.61;64.71;101772.13;5054276;28;20029;-86
2023/04/20 10:10:28;;;;;;;8.02;4.32;;;;;;;8.79;64.27;101812.63;5053233;28;20020;-88
2023/04/20 10:13:03;;;;;;;7.93;4.70;;;;;;;8.14;64.87;101715.59;5054014;28;20107;-90
2023/04/20 10:15:37;;;;;;;6.38;4.57;;;;;;;8.75;64.71;101800.78;5053611;28;20025;-86
2023/04/20 10:18:23;;;;;;;6.63;4.40;;;;;;;8.72;65.27;101787.16;5055669;28;20036;-89
2023/04/20 10:20:54;;;;;;;7.47;4.72;;;;;;;8.67;64.97;101800.22;5054330;28;20036;-83
2023/04/20 10:23:20;;;;;;;6.95;4.50;;;;;;;8.51;65.31;101768.25;5054237;28;20060;-82
2023/04/20 10:25:59;;;;;;;6.95;4.65;;;;;;;8.73;64.44;101807.69;5054735;28;20053;-86
2023/04/20 10:28:38;;;;;;;8.50;4.80;;;;;;;8.67;65.58;101805.38;5055884;28;20087;-84
2023/04/20 10:31:03;;;;;;;7.32;4.53;;;;;;;8.73;66.61;101797.41;5053618;28;20017;-80
2023/04/20 10:34:07;;;;;;;8.25;5.00;;;;;;;8.86;65.91;101801.19;5054711;28;20024;-86
2023/04/20 10:36:35;;;;;;;7.75;4.93;;;;;;;8.10;65.52;101621.44;5053287;28;20044;-87
2023/04/20 10:39:59;;;;;;;8.65;5.22;;;;;;;8.71;64.56;101621.53;5053229;28;20028;-86
2023/04/20 10:42:57;;;;;;;9.02;4.75;;;;;;;8.91;61.02;101575.13;4933582;29;20508;-84
2023/04/20 10:45:56;;;;;;;9.15;5.47;;;;;;;10.37;61.75;101780.88;4879284;29;20041;-84
2023/04/20 10:48:34;;;;;;;7.40;5.03;;;;;;;9.13;59.72;101577.59;4892888;29;20119;-86
2023/04/20 10:51:18;;;;;;;6.88;4.78;;;;;;;10.07;59.99;101778.75;4877105;29;20086;-80
2023/04/20 10:53:44;;;;;;;7.53;5.18;;;;;;;9.19;60.59;101687.31;4877267;29;20040;-82
2023/04/20 10:56:10;;;;;;;7.90;5.13;;;;;;;9.74;61.05;101795.75;4877008;29;20067;-81
2023/04/20 10:59:14;;;;;;;7.75;5.30;;;;;;;8.57;60.78;101559.50;4877039;29;20041;-83
2023/04/20 11:01:43;;;;;;;8.80;5.28;;;;;;;10.19;61.54;101771.34;4876862;29;20131;-83
2023/04/20 11:04:12;;;;;;;8.63;5.05;;;;;;;10.41;59.42;101764.31;4877005;29;20502;-83
2023/04/20 11:06:43;;;;;;;6.88;4.22;;;;;;;10.34;59.04;101756.03;4877190;29;20051;-83
2023/04/20 11:09:23;;;;;;;6.93;4.88;;;;;;;10.26;58.44;101744.41;4877266;29;20153;-82
2023/04/20 11:12:35;;;;;;;7.90;4.78;;;;;;;10.26;58.14;101765.03;4877096;29;20445;-83
2023/04/20 11:15:01;;;;;;;6.25;4.18;;;;;;;8.83;58.03;101515.41;4877178;29;20049;-83
2023/04/20 11:18:10;;;;;;;8.65;5.55;;;;;;;10.42;58.39;101750.53;4876866;29;20083;-82
2023/04/20 11:23:44;;;;;;;7.55;4.90;;;;;;;9.24;58.11;101528.13;5052790;28;20074;-83
2023/04/20 11:26:32;;;;;;;8.52;4.40;;;;;;;10.34;57.82;101731.97;5052336;28;20468;-85
2023/04/20 11:28:58;;;;;;;7.35;4.47;;;;;;;9.98;58.78;101739.63;5052398;28;20040;-81
2023/04/20 11:31:41;;;;;;;7.60;4.80;;;;;;;9.84;59.85;101747.19;5052630;28;20021;-83
2023/04/20 11:34:31;;;;;;;8.45;4.65;;;;;;;8.83;59.32;101551.47;5052283;28;20489;-83
2023/04/20 11:37:24;;;;;;;7.55;4.53;;;;;;;9.17;57.69;101598.91;5051108;28;20051;-84
2023/04/20 11:40:08;;;;;;;8.05;4.78;;;;;;;9.90;58.29;101692.72;5053662;28;20032;-83
2023/04/20 11:42:56;;;;;;;7.63;4.90;;;;;;;8.61;58.60;101487.19;5053229;28;20036;-83